DAL669 TNCC-TNCM
Flight info
| Callsign | DAL669 |
|---|---|
| Flight time | 1h 18m |
| Altitude | 35000 |
| Route | SCAPA1K SCAPA L335 MLIZA L204 GOUDA |
| Aircraft | A321/M-SDE3FGHIRWY/LB1 |
Departure
| Time | 2026-04-14 06:39 |
|---|---|
| Airport | Hato International Airport (TNCC) |
Arrival
| Time | 2026-04-14 07:58 |
|---|---|
| Airport | Princess Juliana International Airport (TNCM) |
| Time | Latitude | Longitude | Altitude | Speed | Heading |
|---|---|---|---|---|---|
| 2026-04-14 06:39 | 12.29831 | -68.83565 | 6264 ft | 280 kts | 17° |
| 2026-04-14 06:39 | 12.31676 | -68.82977 | 6870 ft | 283 kts | 17° |
| 2026-04-14 06:39 | 12.33553 | -68.82368 | 7475 ft | 286 kts | 17° |
| 2026-04-14 06:40 | 12.35463 | -68.81745 | 8085 ft | 289 kts | 17° |
| 2026-04-14 06:40 | 12.37393 | -68.81113 | 8691 ft | 292 kts | 17° |
| 2026-04-14 06:40 | 12.39333 | -68.80475 | 9284 ft | 294 kts | 17° |
| 2026-04-14 06:40 | 12.41286 | -68.79835 | 9860 ft | 297 kts | 17° |
| 2026-04-14 06:41 | 12.43251 | -68.79192 | 10189 ft | 310 kts | 17° |
| 2026-04-14 06:41 | 12.45401 | -68.78487 | 10306 ft | 329 kts | 17° |
| 2026-04-14 06:41 | 12.47610 | -68.77762 | 10435 ft | 346 kts | 17° |
| 2026-04-14 06:41 | 12.49935 | -68.76999 | 10795 ft | 354 kts | 17° |
| 2026-04-14 06:42 | 12.52296 | -68.76225 | 11297 ft | 358 kts | 17° |
| 2026-04-14 06:42 | 12.54707 | -68.75436 | 11830 ft | 361 kts | 17° |
| 2026-04-14 06:42 | 12.57078 | -68.74658 | 12370 ft | 364 kts | 16° |
| 2026-04-14 06:42 | 12.59498 | -68.73864 | 12904 ft | 367 kts | 16° |
| 2026-04-14 06:43 | 12.61938 | -68.73064 | 13440 ft | 370 kts | 16° |
| 2026-04-14 06:43 | 12.64399 | -68.72254 | 13945 ft | 373 kts | 16° |
| 2026-04-14 06:43 | 12.66879 | -68.71426 | 14395 ft | 377 kts | 17° |
| 2026-04-14 06:43 | 12.69364 | -68.70533 | 14869 ft | 380 kts | 18° |
| 2026-04-14 06:44 | 12.71858 | -68.69588 | 15329 ft | 384 kts | 19° |
| 2026-04-14 06:44 | 12.74368 | -68.68617 | 15792 ft | 387 kts | 19° |
| 2026-04-14 06:44 | 12.76897 | -68.67631 | 16241 ft | 391 kts | 18° |
| 2026-04-14 06:44 | 12.79450 | -68.66641 | 16679 ft | 394 kts | 18° |
| 2026-04-14 06:45 | 12.82031 | -68.65653 | 17109 ft | 398 kts | 18° |
| 2026-04-14 06:45 | 12.84638 | -68.64666 | 17536 ft | 401 kts | 17° |
| 2026-04-14 06:45 | 12.87268 | -68.63676 | 17968 ft | 404 kts | 17° |
| 2026-04-14 06:45 | 12.89921 | -68.62679 | 18354 ft | 408 kts | 17° |
| 2026-04-14 06:46 | 12.95276 | -68.60658 | 19104 ft | 412 kts | 17° |
| 2026-04-14 06:46 | 12.97970 | -68.59637 | 19466 ft | 414 kts | 17° |
| 2026-04-14 06:46 | 13.00644 | -68.58622 | 19825 ft | 416 kts | 16° |
| 2026-04-14 06:47 | 13.03361 | -68.57591 | 20180 ft | 417 kts | 16° |
| 2026-04-14 06:47 | 13.06090 | -68.56556 | 20523 ft | 419 kts | 16° |
| 2026-04-14 06:47 | 13.08830 | -68.55518 | 20874 ft | 421 kts | 16° |
| 2026-04-14 06:47 | 13.11582 | -68.54475 | 21208 ft | 423 kts | 16° |
| 2026-04-14 06:48 | 13.14344 | -68.53425 | 21539 ft | 424 kts | 16° |
| 2026-04-14 06:48 | 13.17118 | -68.52368 | 21863 ft | 426 kts | 16° |
| 2026-04-14 06:48 | 13.19901 | -68.51307 | 22179 ft | 428 kts | 15° |
| 2026-04-14 06:48 | 13.22698 | -68.50245 | 22490 ft | 429 kts | 15° |
| 2026-04-14 06:49 | 13.25507 | -68.49181 | 22789 ft | 431 kts | 15° |
| 2026-04-14 06:49 | 13.28326 | -68.48113 | 23087 ft | 433 kts | 15° |
| 2026-04-14 06:49 | 13.31156 | -68.47040 | 23382 ft | 434 kts | 15° |
| 2026-04-14 06:49 | 13.33997 | -68.45961 | 23634 ft | 436 kts | 15° |
| 2026-04-14 06:50 | 13.36846 | -68.44875 | 23870 ft | 438 kts | 15° |
| 2026-04-14 06:50 | 13.39705 | -68.43788 | 24110 ft | 439 kts | 15° |
| 2026-04-14 06:50 | 13.42572 | -68.42697 | 24360 ft | 440 kts | 15° |
| 2026-04-14 06:50 | 13.45447 | -68.41602 | 24609 ft | 441 kts | 15° |
| 2026-04-14 06:51 | 13.48330 | -68.40503 | 24851 ft | 443 kts | 15° |
| 2026-04-14 06:51 | 13.51223 | -68.39400 | 25088 ft | 444 kts | 15° |
| 2026-04-14 06:51 | 13.54124 | -68.38293 | 25320 ft | 445 kts | 15° |
| 2026-04-14 06:51 | 13.57033 | -68.37184 | 25556 ft | 447 kts | 15° |
| 2026-04-14 06:52 | 13.59952 | -68.36072 | 25793 ft | 448 kts | 15° |
| 2026-04-14 06:52 | 13.62892 | -68.34952 | 25996 ft | 450 kts | 15° |
| 2026-04-14 06:52 | 13.65831 | -68.33832 | 26220 ft | 451 kts | 15° |
| 2026-04-14 06:52 | 13.68778 | -68.32709 | 26440 ft | 453 kts | 15° |
| 2026-04-14 06:53 | 13.71736 | -68.31585 | 26656 ft | 454 kts | 15° |
| 2026-04-14 06:53 | 13.74703 | -68.30458 | 26879 ft | 455 kts | 15° |
| 2026-04-14 06:53 | 13.77678 | -68.29325 | 27091 ft | 457 kts | 15° |
| 2026-04-14 06:53 | 13.80662 | -68.28186 | 27301 ft | 458 kts | 15° |
| 2026-04-14 06:54 | 13.83652 | -68.27040 | 27511 ft | 459 kts | 15° |
| 2026-04-14 06:54 | 13.86653 | -68.25891 | 27720 ft | 461 kts | 15° |
| 2026-04-14 06:54 | 13.89661 | -68.24738 | 27923 ft | 462 kts | 15° |
| 2026-04-14 06:54 | 13.92678 | -68.23582 | 28129 ft | 463 kts | 15° |
| 2026-04-14 06:55 | 13.95704 | -68.22424 | 28321 ft | 465 kts | 15° |
| 2026-04-14 06:55 | 13.98738 | -68.21264 | 28502 ft | 466 kts | 15° |
| 2026-04-14 06:55 | 14.01783 | -68.20104 | 28690 ft | 467 kts | 15° |
| 2026-04-14 06:55 | 14.04834 | -68.18941 | 28872 ft | 468 kts | 15° |
| 2026-04-14 06:56 | 14.07892 | -68.17771 | 29045 ft | 470 kts | 15° |
| 2026-04-14 06:56 | 14.10957 | -68.16594 | 29225 ft | 471 kts | 15° |
| 2026-04-14 06:56 | 14.14030 | -68.15414 | 29403 ft | 472 kts | 15° |
| 2026-04-14 06:56 | 14.17112 | -68.14234 | 29575 ft | 473 kts | 15° |
| 2026-04-14 06:57 | 14.20202 | -68.13051 | 29749 ft | 474 kts | 15° |
| 2026-04-14 06:57 | 14.23299 | -68.11862 | 29936 ft | 476 kts | 15° |
| 2026-04-14 06:57 | 14.26403 | -68.10671 | 30096 ft | 477 kts | 15° |
| 2026-04-14 06:57 | 14.29515 | -68.09475 | 30274 ft | 477 kts | 15° |
| 2026-04-14 06:58 | 14.32625 | -68.08278 | 30496 ft | 477 kts | 15° |
| 2026-04-14 06:58 | 14.35733 | -68.07084 | 30707 ft | 477 kts | 15° |
| 2026-04-14 06:58 | 14.38843 | -68.05890 | 30912 ft | 477 kts | 14° |
| 2026-04-14 06:58 | 14.41952 | -68.04701 | 31125 ft | 477 kts | 14° |
| 2026-04-14 06:59 | 14.45062 | -68.03512 | 31338 ft | 477 kts | 14° |
| 2026-04-14 06:59 | 14.48172 | -68.02323 | 31556 ft | 477 kts | 14° |
| 2026-04-14 06:59 | 14.51281 | -68.01131 | 31778 ft | 477 kts | 14° |
| 2026-04-14 06:59 | 14.54402 | -67.99930 | 31994 ft | 477 kts | 14° |
| 2026-04-14 07:00 | 14.57497 | -67.98737 | 32217 ft | 477 kts | 14° |
| 2026-04-14 07:00 | 14.60605 | -67.97539 | 32444 ft | 477 kts | 14° |
| 2026-04-14 07:00 | 14.63711 | -67.96339 | 32662 ft | 477 kts | 14° |
| 2026-04-14 07:00 | 14.66829 | -67.95133 | 32888 ft | 477 kts | 14° |
| 2026-04-14 07:01 | 14.69933 | -67.93933 | 33114 ft | 476 kts | 14° |
| 2026-04-14 07:01 | 14.73037 | -67.92740 | 33342 ft | 476 kts | 13° |
| 2026-04-14 07:01 | 14.76142 | -67.91551 | 33556 ft | 476 kts | 13° |
| 2026-04-14 07:01 | 14.79245 | -67.90362 | 33791 ft | 476 kts | 13° |
| 2026-04-14 07:02 | 14.82358 | -67.89164 | 34004 ft | 476 kts | 13° |
| 2026-04-14 07:02 | 14.85420 | -67.87983 | 34191 ft | 476 kts | 13° |
| 2026-04-14 07:02 | 14.88527 | -67.86785 | 34374 ft | 475 kts | 13° |
| 2026-04-14 07:02 | 14.91626 | -67.85592 | 34551 ft | 475 kts | 13° |
| 2026-04-14 07:03 | 14.94720 | -67.84401 | 34749 ft | 475 kts | 13° |
| 2026-04-14 07:03 | 14.97819 | -67.83206 | 34898 ft | 476 kts | 13° |
| 2026-04-14 07:03 | 15.00910 | -67.82007 | 34939 ft | 473 kts | 13° |
| 2026-04-14 07:04 | 15.07055 | -67.79616 | 34943 ft | 471 kts | 13° |
| 2026-04-14 07:04 | 15.13192 | -67.77237 | 34950 ft | 471 kts | 12° |
| 2026-04-14 07:05 | 15.19333 | -67.74873 | 34941 ft | 471 kts | 12° |
| 2026-04-14 07:05 | 15.25490 | -67.72507 | 34945 ft | 471 kts | 12° |
| 2026-04-14 07:06 | 15.31630 | -67.70121 | 34945 ft | 471 kts | 12° |
| 2026-04-14 07:06 | 15.37771 | -67.67730 | 34951 ft | 471 kts | 12° |
| 2026-04-14 07:07 | 15.43917 | -67.65355 | 34948 ft | 472 kts | 12° |
| 2026-04-14 07:07 | 15.50066 | -67.62972 | 34945 ft | 472 kts | 12° |
| 2026-04-14 07:08 | 15.56216 | -67.60583 | 34947 ft | 472 kts | 12° |
| 2026-04-14 07:08 | 15.62379 | -67.58182 | 34948 ft | 472 kts | 12° |
| 2026-04-14 07:09 | 15.68531 | -67.55788 | 34947 ft | 472 kts | 12° |
| 2026-04-14 07:09 | 15.74650 | -67.53412 | 34950 ft | 472 kts | 12° |
| 2026-04-14 07:10 | 15.80724 | -67.50715 | 34951 ft | 485 kts | 24° |
| 2026-04-14 07:10 | 15.83471 | -67.48620 | 34948 ft | 496 kts | 36° |
| 2026-04-14 07:10 | 15.85845 | -67.45971 | 34942 ft | 507 kts | 47° |
| 2026-04-14 07:11 | 15.89732 | -67.39796 | 34933 ft | 512 kts | 52° |
| 2026-04-14 07:11 | 15.93573 | -67.33566 | 34933 ft | 513 kts | 52° |
| 2026-04-14 07:12 | 15.97423 | -67.27327 | 34935 ft | 513 kts | 52° |
| 2026-04-14 07:12 | 16.01274 | -67.21079 | 34935 ft | 514 kts | 52° |
| 2026-04-14 07:13 | 16.05129 | -67.14827 | 34937 ft | 514 kts | 52° |
| 2026-04-14 07:13 | 16.08983 | -67.08569 | 34941 ft | 514 kts | 52° |
| 2026-04-14 07:14 | 16.12832 | -67.02302 | 34945 ft | 514 kts | 52° |
| 2026-04-14 07:14 | 16.16687 | -66.96018 | 34947 ft | 514 kts | 51° |
| 2026-04-14 07:15 | 16.20546 | -66.89752 | 34945 ft | 514 kts | 52° |
| 2026-04-14 07:15 | 16.24398 | -66.83478 | 34949 ft | 515 kts | 52° |
| 2026-04-14 07:16 | 16.28243 | -66.77195 | 34946 ft | 515 kts | 52° |
| 2026-04-14 07:16 | 16.32091 | -66.70913 | 34942 ft | 515 kts | 52° |
| 2026-04-14 07:17 | 16.35938 | -66.64629 | 34944 ft | 515 kts | 52° |
| 2026-04-14 07:17 | 16.39782 | -66.58340 | 34948 ft | 515 kts | 52° |
| 2026-04-14 07:18 | 16.43622 | -66.52043 | 34949 ft | 515 kts | 52° |
| 2026-04-14 07:18 | 16.46808 | -66.46808 | 34954 ft | 515 kts | 52° |
| 2026-04-14 07:19 | 16.50645 | -66.40501 | 34954 ft | 515 kts | 52° |
| 2026-04-14 07:19 | 16.54500 | -66.34187 | 34956 ft | 515 kts | 52° |
| 2026-04-14 07:20 | 16.58338 | -66.27892 | 34961 ft | 516 kts | 52° |
| 2026-04-14 07:20 | 16.62185 | -66.21556 | 34959 ft | 516 kts | 52° |
| 2026-04-14 07:21 | 16.66029 | -66.15224 | 34952 ft | 517 kts | 52° |
| 2026-04-14 07:21 | 16.69876 | -66.08883 | 34950 ft | 518 kts | 52° |
| 2026-04-14 07:22 | 16.73733 | -66.02531 | 34944 ft | 519 kts | 52° |
| 2026-04-14 07:22 | 16.77588 | -65.96163 | 34945 ft | 519 kts | 52° |
| 2026-04-14 07:23 | 16.81445 | -65.89781 | 34942 ft | 520 kts | 52° |
| 2026-04-14 07:23 | 16.85307 | -65.83395 | 34939 ft | 520 kts | 52° |
| 2026-04-14 07:24 | 16.89176 | -65.77004 | 34940 ft | 521 kts | 52° |
| 2026-04-14 07:24 | 16.93037 | -65.70603 | 34943 ft | 521 kts | 53° |
| 2026-04-14 07:25 | 16.96898 | -65.64194 | 34943 ft | 521 kts | 53° |
| 2026-04-14 07:25 | 17.00760 | -65.57781 | 34946 ft | 522 kts | 53° |
| 2026-04-14 07:26 | 17.04622 | -65.51362 | 34945 ft | 522 kts | 53° |
| 2026-04-14 07:26 | 17.08488 | -65.44941 | 34941 ft | 522 kts | 53° |
| 2026-04-14 07:27 | 17.12354 | -65.38516 | 34944 ft | 522 kts | 53° |
| 2026-04-14 07:27 | 17.16212 | -65.32078 | 34941 ft | 523 kts | 53° |
| 2026-04-14 07:28 | 17.20072 | -65.25618 | 34940 ft | 523 kts | 53° |
| 2026-04-14 07:28 | 17.23928 | -65.19195 | 34618 ft | 523 kts | 53° |
| 2026-04-14 07:28 | 17.25875 | -65.15951 | 34384 ft | 523 kts | 53° |
| 2026-04-14 07:29 | 17.27809 | -65.12726 | 34163 ft | 523 kts | 53° |
| 2026-04-14 07:29 | 17.29748 | -65.09485 | 33941 ft | 524 kts | 53° |
| 2026-04-14 07:29 | 17.31678 | -65.06253 | 33697 ft | 524 kts | 53° |
| 2026-04-14 07:29 | 17.33578 | -65.03071 | 33445 ft | 524 kts | 53° |
| 2026-04-14 07:30 | 17.35509 | -64.99834 | 33126 ft | 524 kts | 54° |
| 2026-04-14 07:30 | 17.37448 | -64.96583 | 32458 ft | 525 kts | 54° |
| 2026-04-14 07:30 | 17.39380 | -64.93343 | 31822 ft | 525 kts | 54° |
| 2026-04-14 07:30 | 17.41312 | -64.90101 | 31184 ft | 525 kts | 54° |
| 2026-04-14 07:31 | 17.43246 | -64.86860 | 30547 ft | 525 kts | 55° |
| 2026-04-14 07:31 | 17.45179 | -64.83615 | 29886 ft | 525 kts | 55° |
| 2026-04-14 07:31 | 17.47105 | -64.80373 | 29320 ft | 521 kts | 56° |
| 2026-04-14 07:31 | 17.49005 | -64.77173 | 28876 ft | 514 kts | 56° |
| 2026-04-14 07:32 | 17.50890 | -64.74005 | 28331 ft | 510 kts | 56° |
| 2026-04-14 07:32 | 17.52757 | -64.70870 | 27847 ft | 504 kts | 56° |
| 2026-04-14 07:32 | 17.54603 | -64.67769 | 27387 ft | 499 kts | 56° |
| 2026-04-14 07:32 | 17.56429 | -64.64704 | 26931 ft | 493 kts | 57° |
| 2026-04-14 07:33 | 17.58233 | -64.61673 | 26472 ft | 487 kts | 57° |
| 2026-04-14 07:33 | 17.60014 | -64.58673 | 26034 ft | 482 kts | 57° |
| 2026-04-14 07:33 | 17.61773 | -64.55706 | 25579 ft | 477 kts | 57° |
| 2026-04-14 07:34 | 17.66938 | -64.46982 | 24293 ft | 461 kts | 58° |
| 2026-04-14 07:34 | 17.68627 | -64.44130 | 23868 ft | 456 kts | 58° |
| 2026-04-14 07:34 | 17.70289 | -64.41319 | 23424 ft | 451 kts | 59° |
| 2026-04-14 07:35 | 17.71934 | -64.38538 | 22907 ft | 446 kts | 59° |
| 2026-04-14 07:35 | 17.73563 | -64.35787 | 22401 ft | 442 kts | 59° |
| 2026-04-14 07:35 | 17.75176 | -64.33063 | 21885 ft | 437 kts | 59° |
| 2026-04-14 07:35 | 17.76775 | -64.30360 | 21386 ft | 433 kts | 59° |
| 2026-04-14 07:36 | 17.78354 | -64.27685 | 20895 ft | 429 kts | 59° |
| 2026-04-14 07:36 | 17.79840 | -64.24993 | 20413 ft | 424 kts | 66° |
| 2026-04-14 07:36 | 17.80819 | -64.22103 | 19970 ft | 417 kts | 78° |
| 2026-04-14 07:36 | 17.81491 | -64.19158 | 19483 ft | 413 kts | 78° |
| 2026-04-14 07:37 | 17.82151 | -64.16238 | 19032 ft | 410 kts | 78° |
| 2026-04-14 07:37 | 17.82805 | -64.13337 | 18595 ft | 406 kts | 78° |
| 2026-04-14 07:37 | 17.83451 | -64.10474 | 18164 ft | 402 kts | 78° |
| 2026-04-14 07:37 | 17.84098 | -64.07627 | 17669 ft | 399 kts | 78° |
| 2026-04-14 07:38 | 17.84743 | -64.04811 | 17199 ft | 395 kts | 77° |
| 2026-04-14 07:38 | 17.85383 | -64.02021 | 16734 ft | 392 kts | 77° |
| 2026-04-14 07:38 | 17.86017 | -63.99255 | 16302 ft | 388 kts | 77° |
| 2026-04-14 07:38 | 17.86647 | -63.96508 | 15846 ft | 385 kts | 77° |
| 2026-04-14 07:39 | 17.87257 | -63.93834 | 15415 ft | 382 kts | 77° |
| 2026-04-14 07:39 | 17.87871 | -63.91132 | 14991 ft | 379 kts | 77° |
| 2026-04-14 07:39 | 17.88481 | -63.88448 | 14567 ft | 377 kts | 76° |
| 2026-04-14 07:39 | 17.89092 | -63.85753 | 14139 ft | 374 kts | 76° |
| 2026-04-14 07:40 | 17.89688 | -63.83108 | 13716 ft | 371 kts | 76° |
| 2026-04-14 07:40 | 17.90279 | -63.80485 | 13267 ft | 368 kts | 76° |
| 2026-04-14 07:40 | 17.90871 | -63.77875 | 12831 ft | 364 kts | 76° |
| 2026-04-14 07:40 | 17.91448 | -63.75327 | 12389 ft | 361 kts | 76° |
| 2026-04-14 07:41 | 17.92025 | -63.72779 | 12110 ft | 353 kts | 76° |
| 2026-04-14 07:41 | 17.92582 | -63.70312 | 11983 ft | 341 kts | 76° |
| 2026-04-14 07:41 | 17.93128 | -63.67894 | 11857 ft | 330 kts | 76° |
| 2026-04-14 07:41 | 17.93648 | -63.65591 | 11726 ft | 319 kts | 76° |
| 2026-04-14 07:42 | 17.94135 | -63.63370 | 11465 ft | 314 kts | 76° |
| 2026-04-14 07:42 | 17.94614 | -63.61147 | 11141 ft | 311 kts | 77° |
| 2026-04-14 07:42 | 17.95086 | -63.58939 | 10804 ft | 309 kts | 77° |
| 2026-04-14 07:42 | 17.95552 | -63.56760 | 10448 ft | 307 kts | 77° |
| 2026-04-14 07:43 | 17.96019 | -63.54579 | 10109 ft | 305 kts | 77° |
| 2026-04-14 07:43 | 17.96484 | -63.52418 | 9768 ft | 302 kts | 77° |
| 2026-04-14 07:43 | 17.96948 | -63.50273 | 9400 ft | 300 kts | 77° |
| 2026-04-14 07:43 | 17.97412 | -63.48130 | 8797 ft | 306 kts | 77° |
| 2026-04-14 07:44 | 17.97892 | -63.45907 | 7984 ft | 318 kts | 77° |
| 2026-04-14 07:44 | 17.98389 | -63.43598 | 7158 ft | 330 kts | 77° |
| 2026-04-14 07:44 | 17.98902 | -63.41208 | 6307 ft | 341 kts | 77° |
| 2026-04-14 07:44 | 17.99428 | -63.38752 | 5417 ft | 346 kts | 78° |
| 2026-04-14 07:45 | 17.99950 | -63.36328 | 4526 ft | 333 kts | 79° |
| 2026-04-14 07:45 | 18.00451 | -63.34014 | 3971 ft | 311 kts | 79° |
| 2026-04-14 07:45 | 18.00913 | -63.31881 | 3600 ft | 288 kts | 79° |
| 2026-04-14 07:45 | 18.01340 | -63.29904 | 3260 ft | 268 kts | 79° |
| 2026-04-14 07:46 | 18.01689 | -63.28058 | 2941 ft | 249 kts | 83° |
| 2026-04-14 07:46 | 18.01947 | -63.26341 | 2645 ft | 230 kts | 85° |
| 2026-04-14 07:46 | 18.02167 | -63.24723 | 2402 ft | 216 kts | 84° |
| 2026-04-14 07:46 | 18.02372 | -63.23192 | 2113 ft | 207 kts | 85° |
| 2026-04-14 07:47 | 18.02570 | -63.21752 | 1887 ft | 190 kts | 84° |
| 2026-04-14 07:47 | 18.02756 | -63.20444 | 1745 ft | 171 kts | 86° |
| 2026-04-14 07:47 | 18.02925 | -63.19261 | 1734 ft | 157 kts | 85° |
| 2026-04-14 07:47 | 18.03076 | -63.18168 | 1709 ft | 147 kts | 85° |
| 2026-04-14 07:48 | 18.03222 | -63.17112 | 1700 ft | 145 kts | 87° |
| 2026-04-14 07:48 | 18.03374 | -63.16058 | 1500 ft | 147 kts | 86° |
| 2026-04-14 07:48 | 18.03552 | -63.14998 | 1065 ft | 147 kts | 82° |
| 2026-04-14 07:48 | 18.03803 | -63.13978 | 817 ft | 144 kts | 82° |
| 2026-04-14 07:49 | 18.03914 | -63.12940 | 452 ft | 143 kts | 88° |
| 2026-04-14 07:49 | 18.03977 | -63.11902 | 110 ft | 146 kts | 89° |
| 2026-04-14 07:49 | 18.04119 | -63.10761 | 562 ft | 162 kts | 80° |
| 2026-04-14 07:49 | 18.04264 | -63.09581 | 1199 ft | 165 kts | 96° |
| 2026-04-14 07:50 | 18.04012 | -63.08380 | 1874 ft | 174 kts | 105° |
| 2026-04-14 07:50 | 18.03433 | -63.07197 | 1990 ft | 193 kts | 136° |
| 2026-04-14 07:50 | 18.02178 | -63.06575 | 2014 ft | 211 kts | 170° |
| 2026-04-14 07:50 | 18.00702 | -63.06854 | 1990 ft | 226 kts | 205° |
| 2026-04-14 07:51 | 17.99559 | -63.08002 | 1978 ft | 234 kts | 239° |
| 2026-04-14 07:51 | 17.99113 | -63.09659 | 2006 ft | 240 kts | 261° |
| 2026-04-14 07:51 | 17.98990 | -63.11410 | 2009 ft | 241 kts | 264° |
| 2026-04-14 07:51 | 17.98928 | -63.13164 | 2008 ft | 240 kts | 265° |
| 2026-04-14 07:52 | 17.98859 | -63.14922 | 2008 ft | 241 kts | 264° |
| 2026-04-14 07:52 | 17.98805 | -63.16687 | 2008 ft | 242 kts | 265° |
| 2026-04-14 07:52 | 17.98750 | -63.18448 | 2008 ft | 241 kts | 266° |
| 2026-04-14 07:52 | 17.98701 | -63.20180 | 1955 ft | 231 kts | 266° |
| 2026-04-14 07:53 | 17.98648 | -63.21804 | 1873 ft | 214 kts | 265° |
| 2026-04-14 07:53 | 17.98664 | -63.23326 | 1769 ft | 206 kts | 278° |
| 2026-04-14 07:53 | 17.99364 | -63.24622 | 1707 ft | 211 kts | 320° |
| 2026-04-14 07:53 | 18.00658 | -63.25263 | 1714 ft | 202 kts | 350° |
| 2026-04-14 07:54 | 18.02014 | -63.25523 | 1700 ft | 193 kts | 358° |
| 2026-04-14 07:54 | 18.03260 | -63.25267 | 1697 ft | 178 kts | 38° |
| 2026-04-14 07:54 | 18.03949 | -63.24301 | 1698 ft | 160 kts | 81° |
| 2026-04-14 07:54 | 18.03916 | -63.23177 | 1743 ft | 153 kts | 103° |
| 2026-04-14 07:55 | 18.03589 | -63.22135 | 1713 ft | 149 kts | 114° |
| 2026-04-14 07:55 | 18.03210 | -63.21125 | 1648 ft | 149 kts | 109° |
| 2026-04-14 07:55 | 18.03065 | -63.20039 | 1471 ft | 152 kts | 91° |
| 2026-04-14 07:55 | 18.03153 | -63.18925 | 1357 ft | 153 kts | 88° |
| 2026-04-14 07:56 | 18.03263 | -63.17809 | 1262 ft | 155 kts | 89° |
| 2026-04-14 07:56 | 18.03314 | -63.16685 | 1121 ft | 154 kts | 94° |
| 2026-04-14 07:56 | 18.03349 | -63.15565 | 939 ft | 153 kts | 92° |
| 2026-04-14 07:56 | 18.03440 | -63.14445 | 734 ft | 157 kts | 84° |
| 2026-04-14 07:57 | 18.03727 | -63.13335 | 514 ft | 158 kts | 75° |
| 2026-04-14 07:57 | 18.03943 | -63.12224 | 122 ft | 154 kts | 90° |
| 2026-04-14 07:57 | 18.04059 | -63.11199 | 26 ft | 131 kts | 82° |
| 2026-04-14 07:57 | 18.04161 | -63.10397 | 21 ft | 85 kts | 82° |
| 2026-04-14 07:58 | 18.04204 | -63.10082 | 20 ft | 15 kts | 83° |
| 2026-04-14 07:58 | 18.04221 | -63.09990 | 20 ft | 12 kts | 76° |
| 2026-04-14 07:58 | 18.04261 | -63.09919 | 21 ft | 11 kts | 52° |
| 2026-04-14 07:58 | 18.04292 | -63.09856 | 21 ft | 9 kts | 98° |
| 2026-04-14 07:59 | 18.04251 | -63.09832 | 21 ft | 6 kts | 184° |
| 2026-04-14 07:59 | 18.04231 | -63.09868 | 21 ft | 8 kts | 263° |
| 2026-04-14 07:59 | 18.04223 | -63.09959 | 22 ft | 17 kts | 267° |
| 2026-04-14 07:59 | 18.04205 | -63.10114 | 21 ft | 26 kts | 261° |
| 2026-04-14 08:00 | 18.04185 | -63.10252 | 21 ft | 31 kts | 262° |
| 2026-04-14 08:00 | 18.04149 | -63.10508 | 21 ft | 39 kts | 261° |
| 2026-04-14 08:00 | 18.04105 | -63.10810 | 21 ft | 41 kts | 262° |
| 2026-04-14 08:00 | 18.04072 | -63.11063 | 23 ft | 21 kts | 262° |
| 2026-04-14 08:01 | 18.04088 | -63.11151 | 21 ft | 12 kts | 328° |
| 2026-04-14 08:01 | 18.04167 | -63.11165 | 21 ft | 8 kts | 348° |
| 2026-04-14 08:01 | 18.04176 | -63.11167 | 21 ft | 0 kts | 347° |
| 2026-04-14 08:02 | 18.04202 | -63.11176 | 21 ft | 5 kts | 339° |
| 2026-04-14 08:02 | 18.04222 | -63.11196 | 22 ft | 2 kts | 290° |
| 2026-04-14 08:02 | 18.04219 | -63.11209 | 21 ft | 1 kts | 262° |
| 2026-04-14 08:02 | 18.04216 | -63.11230 | 21 ft | 5 kts | 260° |
| 2026-04-14 08:03 | 18.04230 | -63.11257 | 23 ft | 4 kts | 316° |
| 2026-04-14 08:03 | 18.04255 | -63.11275 | 21 ft | 5 kts | 332° |
| 2026-04-14 08:03 | 18.04284 | -63.11284 | 21 ft | 4 kts | 346° |
| 2026-04-14 08:03 | 18.04285 | -63.11294 | 23 ft | 1 kts | 251° |
| 2026-04-14 08:04 | 18.04266 | -63.11321 | 21 ft | 5 kts | 235° |
| 2026-04-14 08:04 | 18.04261 | -63.11350 | 21 ft | 3 kts | 302° |
| 2026-04-14 08:04 | 18.04273 | -63.11353 | 21 ft | 1 kts | 353° |
| 2026-04-14 08:04 | 18.04279 | -63.11354 | 21 ft | 1 kts | 352° |
| 2026-04-14 08:05 | 18.04289 | -63.11356 | 21 ft | 2 kts | 352° |
| 2026-04-14 08:05 | 18.04311 | -63.11359 | 21 ft | 3 kts | 352° |
| 2026-04-14 08:05 | 18.04328 | -63.11361 | 21 ft | 1 kts | 351° |
| 2026-04-14 08:05 | 18.04329 | -63.11362 | 21 ft | 0 kts | 351° |